createdAt,value
2019-01-15T00:00:15.914Z,81.28
2019-01-15T00:02:48.364Z,81.32
2019-01-15T00:05:20.678Z,81.41
2019-01-15T00:07:52.539Z,81.49
2019-01-15T00:10:24.838Z,81.54
2019-01-15T00:12:57.159Z,81.61
2019-01-15T00:15:29.883Z,81.66
2019-01-15T00:18:01.906Z,81.69
2019-01-15T00:20:35.246Z,81.72
2019-01-15T00:23:07.406Z,81.82
2019-01-15T00:25:39.156Z,81.87
2019-01-15T00:28:11.470Z,81.91
2019-01-15T00:30:43.757Z,81.96
2019-01-15T00:33:16.207Z,82.03
2019-01-15T00:35:48.509Z,82.09
2019-01-15T00:38:20.903Z,82.23
2019-01-15T00:40:52.632Z,82.34
2019-01-15T00:43:24.402Z,82.44
2019-01-15T00:45:56.147Z,82.55
2019-01-15T00:48:27.897Z,82.64
2019-01-15T00:51:00.272Z,82.71
2019-01-15T00:53:32.870Z,82.86
2019-01-15T00:56:04.706Z,82.95
2019-01-15T00:58:37.013Z,83.05
2019-01-15T01:01:08.749Z,83.16
2019-01-15T01:03:40.526Z,83.27
2019-01-15T01:06:12.809Z,83.36
2019-01-15T01:08:44.560Z,83.47
2019-01-15T01:11:17.021Z,83.53
2019-01-15T01:13:50.437Z,83.54
2019-01-15T01:16:22.496Z,83.66
2019-01-15T01:18:54.924Z,83.70
2019-01-15T01:21:27.281Z,83.80
2019-01-15T01:23:59.739Z,83.83
2019-01-15T01:26:31.481Z,83.85
2019-01-15T01:29:03.796Z,83.88
2019-01-15T01:31:36.167Z,83.93
2019-01-15T01:34:08.489Z,83.96
2019-01-15T01:36:40.941Z,83.99
2019-01-15T01:39:13.261Z,83.94
2019-01-15T01:41:45.560Z,83.94
2019-01-15T01:44:17.981Z,83.90
2019-01-15T01:46:50.354Z,83.85
2019-01-15T01:49:23.024Z,83.77
2019-01-15T01:51:55.043Z,83.70
2019-01-15T01:54:27.360Z,83.66
2019-01-15T01:56:59.687Z,83.67
2019-01-15T01:59:31.990Z,83.57
2019-01-15T02:02:04.656Z,83.48
2019-01-15T02:04:36.390Z,83.42
2019-01-15T02:07:08.201Z,83.37
2019-01-15T02:09:40.882Z,83.26
2019-01-15T02:12:12.636Z,83.25
2019-01-15T02:14:45.039Z,83.19
2019-01-15T02:17:17.489Z,83.16
2019-01-15T02:19:49.792Z,83.16
2019-01-15T02:22:22.108Z,83.08
2019-01-15T02:24:54.426Z,83.06
2019-01-15T02:27:27.125Z,83.03
2019-01-15T02:29:58.867Z,83.04
2019-01-15T02:32:31.185Z,83.01
2019-01-15T02:35:03.724Z,82.99
2019-01-15T02:37:35.476Z,82.96
2019-01-15T02:40:09.595Z,82.95
2019-01-15T02:42:46.791Z,82.95
2019-01-15T02:45:18.170Z,82.93
2019-01-15T02:47:50.534Z,82.99
2019-01-15T02:50:23.423Z,83.03
2019-01-15T02:52:55.535Z,83.05
2019-01-15T02:55:27.793Z,83.12
2019-01-15T02:58:00.165Z,83.13
2019-01-15T03:00:32.483Z,83.11
2019-01-15T03:03:04.789Z,83.19
2019-01-15T03:05:37.093Z,83.26
2019-01-15T03:08:09.413Z,83.31
2019-01-15T03:10:41.880Z,83.33
2019-01-15T03:13:14.192Z,83.37
2019-01-15T03:15:46.475Z,83.42
2019-01-15T03:18:18.789Z,83.47
2019-01-15T03:20:51.091Z,83.54
2019-01-15T03:23:23.509Z,83.56
2019-01-15T03:25:55.800Z,83.61
2019-01-15T03:28:28.210Z,83.64
2019-01-15T03:31:00.634Z,83.71
2019-01-15T03:33:33.004Z,83.71
2019-01-15T03:36:05.408Z,83.80
2019-01-15T03:38:37.740Z,83.87
2019-01-15T03:41:10.060Z,83.91
2019-01-15T03:43:42.391Z,83.97
2019-01-15T03:46:14.697Z,84.04
2019-01-15T03:48:47.485Z,84.08
2019-01-15T03:51:19.487Z,84.13
2019-01-15T03:53:51.821Z,84.22
2019-01-15T03:56:24.219Z,84.30
2019-01-15T03:58:56.533Z,84.35
2019-01-15T04:01:28.833Z,84.41
2019-01-15T04:04:01.481Z,84.43
2019-01-15T04:06:33.233Z,84.49
2019-01-15T04:09:07.555Z,84.53
2019-01-15T04:11:39.934Z,84.58
2019-01-15T04:14:12.269Z,84.66
2019-01-15T04:16:44.563Z,84.68
2019-01-15T04:19:16.881Z,84.74
2019-01-15T04:21:49.194Z,84.78
2019-01-15T04:24:21.959Z,84.83
2019-01-15T04:26:53.691Z,84.87
2019-01-15T04:29:26.038Z,84.92
2019-01-15T04:31:58.780Z,84.97
2019-01-15T04:34:30.534Z,84.99
2019-01-15T04:37:02.271Z,85.01
2019-01-15T04:39:34.580Z,85.06
2019-01-15T04:42:06.882Z,85.09
2019-01-15T04:44:39.205Z,85.09
2019-01-15T04:47:11.525Z,85.16
2019-01-15T04:49:43.922Z,85.18
2019-01-15T04:52:16.526Z,85.23
2019-01-15T04:54:48.949Z,85.26
2019-01-15T04:57:20.956Z,85.28
2019-01-15T04:59:53.455Z,85.32
2019-01-15T05:02:25.213Z,85.37
2019-01-15T05:04:57.851Z,85.42
2019-01-15T05:07:29.594Z,85.41
2019-01-15T05:10:01.931Z,85.45
2019-01-15T05:12:33.756Z,85.47
2019-01-15T05:15:07.985Z,85.50
2019-01-15T05:17:40.307Z,85.56
2019-01-15T05:20:14.039Z,85.58
2019-01-15T05:22:45.784Z,85.63
2019-01-15T05:25:20.246Z,85.66
2019-01-15T05:27:52.095Z,85.71
2019-01-15T05:30:27.322Z,85.72
2019-01-15T05:32:59.720Z,85.76
2019-01-15T05:35:31.814Z,85.81
2019-01-15T05:38:03.589Z,85.85
2019-01-15T05:40:35.997Z,85.89
2019-01-15T05:43:08.329Z,85.91
2019-01-15T05:45:43.625Z,85.97
2019-01-15T05:48:26.320Z,85.97
2019-01-15T05:51:17.490Z,86.04
2019-01-15T05:53:49.617Z,86.11
2019-01-15T05:56:21.435Z,86.13
2019-01-15T05:58:53.802Z,86.17
2019-01-15T06:01:26.136Z,86.22
2019-01-15T06:03:58.447Z,86.26
2019-01-15T06:06:30.774Z,86.32
2019-01-15T06:09:03.634Z,86.36
2019-01-15T06:11:35.664Z,86.41
2019-01-15T06:14:07.973Z,86.45
2019-01-15T06:16:40.290Z,86.47
2019-01-15T06:19:12.627Z,86.47
2019-01-15T06:21:44.966Z,86.52
2019-01-15T06:24:17.305Z,86.51
2019-01-15T06:26:49.903Z,86.50
2019-01-15T06:29:22.203Z,86.53
2019-01-15T06:31:54.580Z,86.55
2019-01-15T06:34:26.940Z,86.57
2019-01-15T06:36:59.443Z,86.60
2019-01-15T06:39:31.761Z,86.59
2019-01-15T06:42:04.496Z,86.62
2019-01-15T06:44:36.360Z,86.60
2019-01-15T06:47:08.683Z,86.63
2019-01-15T06:49:41.130Z,86.66
2019-01-15T06:52:13.572Z,86.64
2019-01-15T06:54:45.946Z,86.67
2019-01-15T06:57:18.275Z,86.66
2019-01-15T06:59:50.593Z,86.68
2019-01-15T07:02:23.274Z,86.68
2019-01-15T07:04:55.382Z,86.71
2019-01-15T07:07:27.406Z,86.72
2019-01-15T07:09:59.142Z,86.75
2019-01-15T07:12:30.997Z,86.74
2019-01-15T07:15:03.512Z,86.74
2019-01-15T07:17:35.903Z,86.75
2019-01-15T07:20:13.842Z,86.72
2019-01-15T07:22:48.221Z,86.75
2019-01-15T07:25:21.679Z,86.75
2019-01-15T07:27:53.742Z,86.74
2019-01-15T07:30:45.796Z,86.70
2019-01-15T07:33:18.294Z,86.70
2019-01-15T07:35:50.322Z,86.71
2019-01-15T07:38:22.089Z,86.69
2019-01-15T07:40:53.884Z,86.69
2019-01-15T07:43:25.653Z,86.69
2019-01-15T07:45:57.953Z,86.68
2019-01-15T07:48:30.285Z,86.64
2019-01-15T07:51:03.024Z,86.62
2019-01-15T07:53:35.183Z,86.61
2019-01-15T07:56:06.899Z,86.62
2019-01-15T07:58:38.655Z,86.57
2019-01-15T08:01:11.233Z,86.51
2019-01-15T08:03:43.550Z,86.50
2019-01-15T08:06:16.175Z,86.47
2019-01-15T08:08:48.547Z,86.47
2019-01-15T08:11:20.895Z,86.45
2019-01-15T08:13:53.255Z,86.33
2019-01-15T08:16:25.850Z,86.22
2019-01-15T08:18:58.172Z,86.15
2019-01-15T08:21:30.548Z,86.05
2019-01-15T08:24:02.850Z,85.90
2019-01-15T08:26:35.137Z,85.79
2019-01-15T08:29:07.568Z,85.68
2019-01-15T08:31:43.338Z,85.55
2019-01-15T08:34:15.889Z,85.52
2019-01-15T08:36:48.179Z,85.38
2019-01-15T08:39:20.487Z,85.28
2019-01-15T08:41:53.576Z,85.17
2019-01-15T08:44:26.186Z,85.05
2019-01-15T08:46:58.526Z,84.91
2019-01-15T08:49:30.278Z,84.73
2019-01-15T08:52:02.573Z,84.64
2019-01-15T08:54:34.908Z,84.55
2019-01-15T08:57:07.310Z,84.50
2019-01-15T08:59:39.621Z,84.42
2019-01-15T09:02:11.999Z,84.35
2019-01-15T09:04:44.313Z,84.23
2019-01-15T09:07:16.614Z,84.17
2019-01-15T09:09:49.000Z,84.11
2019-01-15T09:12:21.296Z,84.10
2019-01-15T09:14:53.827Z,84.13
2019-01-15T09:17:26.133Z,84.14
2019-01-15T09:19:58.454Z,84.11
2019-01-15T09:22:30.745Z,84.12
2019-01-15T09:25:03.167Z,84.06
2019-01-15T09:27:35.472Z,84.07
2019-01-15T09:30:11.799Z,84.12
2019-01-15T09:32:44.189Z,84.12
2019-01-15T09:35:16.549Z,84.15
2019-01-15T09:37:50.617Z,84.14
2019-01-15T09:40:25.048Z,84.20
2019-01-15T09:42:57.336Z,84.22
2019-01-15T09:45:29.657Z,84.28
2019-01-15T09:48:06.552Z,84.23
2019-01-15T09:50:38.863Z,84.29
2019-01-15T09:53:11.240Z,84.28
2019-01-15T09:55:43.654Z,84.28
2019-01-15T09:58:16.013Z,84.25
2019-01-15T10:00:48.405Z,84.22
2019-01-15T10:03:20.695Z,84.15
2019-01-15T10:05:53.117Z,84.10
2019-01-15T10:08:25.413Z,84.09
2019-01-15T10:10:57.839Z,84.06
2019-01-15T10:13:30.174Z,84.05
2019-01-15T10:16:02.565Z,84.01
2019-01-15T10:18:34.960Z,83.97
2019-01-15T10:21:07.262Z,83.96
2019-01-15T10:23:39.594Z,83.97
2019-01-15T10:26:11.886Z,83.91
2019-01-15T10:28:44.198Z,83.92
2019-01-15T10:32:44.221Z,83.90
2019-01-15T10:36:03.039Z,83.91
2019-01-15T10:38:35.444Z,83.93
2019-01-15T10:41:07.795Z,83.91
2019-01-15T10:43:40.101Z,83.92
2019-01-15T10:46:12.522Z,83.87
2019-01-15T10:48:44.871Z,83.92
2019-01-15T10:51:17.486Z,83.91
2019-01-15T10:53:49.369Z,83.93
2019-01-15T10:56:21.825Z,83.91
2019-01-15T10:58:54.175Z,83.86
2019-01-15T11:01:26.490Z,83.79
2019-01-15T11:03:59.785Z,83.78
2019-01-15T11:06:31.973Z,83.72
2019-01-15T11:09:07.291Z,83.65
2019-01-15T11:11:39.623Z,83.52
2019-01-15T11:14:16.094Z,83.43
2019-01-15T11:16:48.451Z,83.28
2019-01-15T11:19:20.754Z,83.12
2019-01-15T11:21:53.167Z,82.90
2019-01-15T11:24:25.553Z,82.88
2019-01-15T11:26:58.014Z,82.61
2019-01-15T11:29:30.314Z,82.44
2019-01-15T11:32:02.790Z,82.35
2019-01-15T11:34:35.074Z,82.21
2019-01-15T11:37:07.490Z,82.10
2019-01-15T11:39:39.815Z,81.68
2019-01-15T11:42:12.128Z,81.46
2019-01-15T11:44:44.433Z,81.39
2019-01-15T11:47:16.776Z,81.30
2019-01-15T11:49:49.201Z,80.95
2019-01-15T11:52:21.621Z,81.01
2019-01-15T11:54:54.049Z,80.65
2019-01-15T11:57:26.423Z,80.60
2019-01-15T11:59:58.765Z,80.37
2019-01-15T12:02:50.049Z,80.10
2019-01-15T12:05:44.344Z,79.96
2019-01-15T12:08:38.581Z,79.91
2019-01-15T12:11:31.407Z,79.54
2019-01-15T12:14:31.669Z,79.59
2019-01-15T12:17:21.518Z,79.64
2019-01-15T12:20:11.304Z,79.62
2019-01-15T12:23:17.937Z,79.54
2019-01-15T12:26:08.003Z,79.47
2019-01-15T12:28:59.522Z,79.08
2019-01-15T12:31:49.538Z,79.53
2019-01-15T12:34:33.991Z,79.20
2019-01-15T12:37:24.147Z,79.61
2019-01-15T12:40:13.041Z,79.50
2019-01-15T12:43:16.251Z,79.40
2019-01-15T12:46:12.379Z,79.67
2019-01-15T12:49:09.384Z,79.39
2019-01-15T12:51:52.541Z,79.80
2019-01-15T12:54:49.497Z,79.75
2019-01-15T12:57:34.742Z,79.82
2019-01-15T13:00:32.650Z,79.87
2019-01-15T13:03:22.563Z,79.65
2019-01-15T13:06:17.402Z,79.82
2019-01-15T13:09:07.226Z,79.95
2019-01-15T13:12:10.452Z,79.77
2019-01-15T13:15:07.713Z,79.76
2019-01-15T13:17:57.336Z,79.66
2019-01-15T13:21:06.620Z,79.67
2019-01-15T13:24:03.625Z,79.77
2019-01-15T13:26:54.827Z,79.76
2019-01-15T13:29:49.224Z,79.73
2019-01-15T13:32:42.160Z,79.86
2019-01-15T13:35:45.882Z,79.85
2019-01-15T13:38:31.343Z,79.85
2019-01-15T13:41:31.681Z,79.91
2019-01-15T13:44:28.990Z,79.96
2019-01-15T13:47:17.391Z,80.04
2019-01-15T13:50:10.556Z,79.99
2019-01-15T13:53:16.448Z,79.93
2019-01-15T13:56:06.321Z,80.07
2019-01-15T13:58:56.286Z,80.19
2019-01-15T14:01:59.839Z,80.27
2019-01-15T14:04:40.018Z,80.23
2019-01-15T14:07:34.896Z,80.31
2019-01-15T14:10:28.541Z,80.36
2019-01-15T14:13:18.066Z,80.48
2019-01-15T14:16:16.676Z,80.48
2019-01-15T14:19:06.775Z,80.51
2019-01-15T14:22:01.019Z,80.56
2019-01-15T14:24:58.311Z,80.55
2019-01-15T14:27:56.868Z,80.62
2019-01-15T14:31:03.277Z,80.55
2019-01-15T14:33:53.086Z,80.60
2019-01-15T14:36:50.180Z,80.56
2019-01-15T14:39:41.358Z,80.38
2019-01-15T14:42:36.881Z,80.53
2019-01-15T14:45:19.944Z,80.48
2019-01-15T14:48:10.051Z,80.48
2019-01-15T14:50:59.991Z,80.52
2019-01-15T14:53:51.149Z,80.50
2019-01-15T14:56:41.191Z,80.60
2019-01-15T14:59:31.169Z,80.74
2019-01-15T15:02:28.868Z,80.67
2019-01-15T15:05:18.870Z,80.77
2019-01-15T15:08:08.656Z,80.75
2019-01-15T15:10:58.707Z,80.84
2019-01-15T15:13:48.885Z,80.92
2019-01-15T15:16:38.802Z,80.86
2019-01-15T15:19:29.985Z,80.95
2019-01-15T15:22:23.928Z,80.87
2019-01-15T15:25:12.898Z,80.87
2019-01-15T15:28:03.035Z,80.80
2019-01-15T15:30:53.058Z,80.80
2019-01-15T15:34:02.769Z,80.85
2019-01-15T15:36:50.550Z,80.86
2019-01-15T15:39:51.047Z,80.91
2019-01-15T15:42:41.881Z,80.97
2019-01-15T15:45:42.516Z,80.96
2019-01-15T15:48:31.167Z,80.91
2019-01-15T15:51:40.711Z,80.92
2019-01-15T15:54:31.087Z,80.87
2019-01-15T15:57:22.681Z,80.87
2019-01-15T16:00:24.312Z,80.83
2019-01-15T16:03:18.294Z,80.73
2019-01-15T16:06:17.104Z,80.79
2019-01-15T16:09:09.021Z,80.75
2019-01-15T16:12:06.194Z,80.57
2019-01-15T16:14:56.376Z,80.53
2019-01-15T16:17:47.537Z,80.63
2019-01-15T16:20:28.526Z,80.62
2019-01-15T16:23:18.611Z,80.68
2019-01-15T16:26:04.720Z,80.74
2019-01-15T16:28:54.949Z,80.66
2019-01-15T16:31:46.140Z,80.77
2019-01-15T16:34:49.437Z,80.84
2019-01-15T16:37:53.290Z,80.86
2019-01-15T16:40:43.197Z,80.95
2019-01-15T16:43:37.442Z,81.03
2019-01-15T16:46:26.401Z,81.11
2019-01-15T16:49:16.517Z,81.05
2019-01-15T16:52:16.046Z,81.14
2019-01-15T16:55:07.272Z,81.25
2019-01-15T16:57:58.452Z,81.32
2019-01-15T17:00:43.244Z,81.35
2019-01-15T17:03:37.351Z,81.40
2019-01-15T17:06:22.101Z,81.35
2019-01-15T17:09:27.754Z,81.38
2019-01-15T17:12:12.693Z,81.46
2019-01-15T17:15:02.874Z,81.53
2019-01-15T17:17:48.265Z,81.60
2019-01-15T17:20:48.471Z,81.65
2019-01-15T17:23:45.958Z,81.70
2019-01-15T17:26:37.170Z,81.75
2019-01-15T17:29:21.206Z,81.82
2019-01-15T17:32:11.201Z,81.84
2019-01-15T17:35:06.914Z,81.96
2019-01-15T17:38:04.317Z,82.01
2019-01-15T17:40:51.619Z,82.06
2019-01-15T17:43:32.546Z,82.08
2019-01-15T17:46:26.808Z,82.17
2019-01-15T17:49:36.347Z,82.22
2019-01-15T17:52:26.277Z,82.25
2019-01-15T17:55:09.584Z,82.34
2019-01-15T17:57:59.388Z,82.44
2019-01-15T18:00:53.488Z,82.46
2019-01-15T18:03:42.288Z,82.53
2019-01-15T18:06:42.515Z,82.54
2019-01-15T18:09:52.131Z,82.59
2019-01-15T18:13:01.606Z,82.66
2019-01-15T18:15:52.818Z,82.76
2019-01-15T18:18:53.405Z,82.82
2019-01-15T18:21:53.868Z,82.93
2019-01-15T18:24:54.636Z,83.00
2019-01-15T18:27:57.927Z,83.05
2019-01-15T18:30:54.689Z,83.10
2019-01-15T18:33:55.431Z,83.15
2019-01-15T18:36:45.885Z,83.23
2019-01-15T18:39:37.532Z,83.29
2019-01-15T18:42:31.733Z,83.35
2019-01-15T18:45:21.442Z,83.43
2019-01-15T18:48:24.296Z,83.49
2019-01-15T18:51:18.229Z,83.56
2019-01-15T18:54:08.515Z,83.62
2019-01-15T18:57:08.879Z,83.68
2019-01-15T18:59:57.821Z,83.73
2019-01-15T19:02:45.370Z,83.79
2019-01-15T19:05:42.711Z,83.89
2019-01-15T19:08:32.999Z,83.93
2019-01-15T19:11:24.210Z,84.00
2019-01-15T19:14:24.730Z,84.06
2019-01-15T19:17:15.145Z,84.14
2019-01-15T19:20:15.365Z,84.19
2019-01-15T19:23:15.911Z,84.24
2019-01-15T19:26:03.499Z,84.33
2019-01-15T19:28:47.474Z,84.42
2019-01-15T19:31:38.663Z,84.48
2019-01-15T19:34:36.041Z,84.56
2019-01-15T19:37:27.238Z,84.64
2019-01-15T19:40:18.419Z,84.72
2019-01-15T19:43:08.438Z,84.78
2019-01-15T19:45:58.511Z,84.86
2019-01-15T19:48:56.145Z,84.93
2019-01-15T19:51:51.671Z,84.93
2019-01-15T19:54:49.250Z,85.00
2019-01-15T19:57:40.492Z,85.03
2019-01-15T20:00:36.168Z,85.07
2019-01-15T20:03:30.680Z,85.11
2019-01-15T20:06:16.137Z,85.15
2019-01-15T20:09:19.346Z,85.22
2019-01-15T20:12:22.925Z,85.28
2019-01-15T20:15:13.879Z,85.34
2019-01-15T20:18:05.071Z,85.37
2019-01-15T20:20:59.084Z,85.40
2019-01-15T20:23:48.913Z,85.42
2019-01-15T20:26:56.540Z,85.46
2019-01-15T20:29:46.391Z,85.50
2019-01-15T20:32:50.352Z,85.52
2019-01-15T20:35:48.950Z,85.59
2019-01-15T20:38:42.518Z,85.60
2019-01-15T20:41:23.802Z,85.69
2019-01-15T20:44:13.691Z,85.70
2019-01-15T20:47:03.428Z,85.75
2019-01-15T20:50:06.467Z,85.81
2019-01-15T20:53:03.814Z,85.84
2019-01-15T20:56:03.945Z,85.93
2019-01-15T20:58:55.135Z,86.00
2019-01-15T21:01:49.051Z,86.01
2019-01-15T21:04:38.548Z,86.04
2019-01-15T21:07:29.511Z,86.06
2019-01-15T21:10:11.300Z,86.13
2019-01-15T21:12:56.499Z,86.21
2019-01-15T21:15:46.683Z,86.24
2019-01-15T21:18:43.678Z,86.29
2019-01-15T21:21:41.171Z,86.32
2019-01-15T21:24:34.072Z,86.38
2019-01-15T21:27:24.291Z,86.40
2019-01-15T21:30:28.118Z,86.43
2019-01-15T21:33:10.315Z,86.44
2019-01-15T21:36:00.431Z,86.40
2019-01-15T21:38:51.650Z,86.41
2019-01-15T21:41:40.919Z,86.39
2019-01-15T21:44:35.103Z,86.40
2019-01-15T21:47:25.713Z,86.38
2019-01-15T21:50:14.079Z,86.39
2019-01-15T21:53:07.067Z,86.35
2019-01-15T21:56:01.075Z,86.35
2019-01-15T21:58:42.715Z,86.32
2019-01-15T22:01:32.588Z,86.32
2019-01-15T22:04:26.842Z,86.35
2019-01-15T22:07:24.265Z,86.35
2019-01-15T22:10:19.777Z,86.40
2019-01-15T22:13:09.739Z,86.40
2019-01-15T22:15:59.236Z,86.44
2019-01-15T22:18:50.452Z,86.47
2019-01-15T22:21:40.299Z,86.48
2019-01-15T22:24:30.309Z,86.47
2019-01-15T22:27:09.676Z,86.47
2019-01-15T22:29:59.824Z,86.46
2019-01-15T22:32:49.836Z,86.42
2019-01-15T22:35:39.631Z,86.45
2019-01-15T22:38:29.446Z,86.47
2019-01-15T22:41:12.297Z,86.49
2019-01-15T22:44:15.283Z,86.49
2019-01-15T22:47:09.672Z,86.48
2019-01-15T22:49:59.785Z,86.47
2019-01-15T22:52:54.150Z,86.47
2019-01-15T22:55:44.015Z,86.49
2019-01-15T22:58:24.711Z,86.48
2019-01-15T23:01:15.956Z,86.51
2019-01-15T23:07:14.900Z,86.46
2019-01-15T23:10:24.514Z,86.49
2019-01-15T23:13:18.644Z,86.46
2019-01-15T23:16:02.675Z,86.49
2019-01-15T23:18:56.629Z,86.50
2019-01-15T23:21:51.729Z,86.53
2019-01-15T23:24:41.643Z,86.59
2019-01-15T23:27:44.827Z,86.61
2019-01-15T23:30:43.118Z,86.65
2019-01-15T23:33:49.914Z,86.69
2019-01-15T23:36:39.987Z,86.73
2019-01-15T23:39:26.098Z,86.72
2019-01-15T23:42:17.273Z,86.73
2019-01-15T23:45:07.491Z,86.73
2019-01-15T23:47:50.708Z,86.72
2019-01-15T23:50:33.827Z,86.73
2019-01-15T23:53:23.429Z,86.68
2019-01-15T23:56:13.587Z,86.64
2019-01-15T23:59:03.235Z,86.65
